Terminal Aerodrome Forecast
Issued by NWS

Home | Current Version | Previous Version | Text Only | Print | Product List | Glossary Off
Versions: 1 2 3 4 5 6 7 8 9 10 11 12 13 14 15 16 17

000
FTUS43 KICT 221100
TAFSLN
TAF
KSLN 221131Z 2212/2312 16011KT P6SM SKC
     FM221600 18018G25KT P6SM SCT150
     FM222300 19009KT P6SM VCSH SCT025 OVC050
     FM230800 19006KT 5SM BR SCT015=

USA.gov is the U.S. government's official web portal to all federal, state and local government web resources and services.